sensor_id;sensor_type;location;lat;lon;timestamp;P1;durP1;ratioP1;P2;durP2;ratioP2
64342;SDS011;50675;53.530;-6.312;2023-08-12T00:47:18;11.18;;;2.97;;
64342;SDS011;50675;53.530;-6.312;2023-08-12T01:01:40;15.77;;;4.38;;
64342;SDS011;50675;53.530;-6.312;2023-08-12T02:03:29;12.80;;;3.60;;
64342;SDS011;50675;53.530;-6.312;2023-08-12T02:17:38;11.98;;;2.80;;
64342;SDS011;50675;53.530;-6.312;2023-08-12T02:20:37;9.40;;;2.67;;
64342;SDS011;50675;53.530;-6.312;2023-08-12T02:23:29;12.35;;;2.85;;
64342;SDS011;50675;53.530;-6.312;2023-08-12T02:26:12;11.30;;;2.88;;
64342;SDS011;50675;53.530;-6.312;2023-08-12T02:29:20;12.02;;;2.50;;
64342;SDS011;50675;53.530;-6.312;2023-08-12T02:32:44;9.25;;;2.22;;
64342;SDS011;50675;53.530;-6.312;2023-08-12T02:43:37;9.82;;;2.50;;
64342;SDS011;50675;53.530;-6.312;2023-08-12T02:46:27;10.02;;;2.53;;
64342;SDS011;50675;53.530;-6.312;2023-08-12T02:49:07;7.82;;;2.10;;
64342;SDS011;50675;53.530;-6.312;2023-08-12T02:51:33;8.23;;;2.03;;
64342;SDS011;50675;53.530;-6.312;2023-08-12T02:57:54;9.50;;;2.03;;
64342;SDS011;50675;53.530;-6.312;2023-08-12T03:00:35;9.10;;;1.77;;
64342;SDS011;50675;53.530;-6.312;2023-08-12T03:03:01;6.85;;;2.17;;
64342;SDS011;50675;53.530;-6.312;2023-08-12T03:05:36;8.95;;;2.22;;
64342;SDS011;50675;53.530;-6.312;2023-08-12T03:08:54;7.72;;;2.28;;
64342;SDS011;50675;53.530;-6.312;2023-08-12T03:18:01;6.75;;;1.70;;
64342;SDS011;50675;53.530;-6.312;2023-08-12T03:24:10;6.10;;;1.60;;
64342;SDS011;50675;53.530;-6.312;2023-08-12T03:37:05;7.68;;;1.92;;
64342;SDS011;50675;53.530;-6.312;2023-08-12T03:43:45;8.35;;;1.50;;
64342;SDS011;50675;53.530;-6.312;2023-08-12T03:46:26;7.22;;;1.63;;
64342;SDS011;50675;53.530;-6.312;2023-08-12T03:49:01;6.10;;;1.95;;
64342;SDS011;50675;53.530;-6.312;2023-08-12T03:51:32;7.70;;;1.90;;
64342;SDS011;50675;53.530;-6.312;2023-08-12T03:59:57;4.30;;;1.77;;
64342;SDS011;50675;53.530;-6.312;2023-08-12T04:02:23;4.43;;;1.35;;
64342;SDS011;50675;53.530;-6.312;2023-08-12T04:04:51;8.90;;;1.70;;
64342;SDS011;50675;53.530;-6.312;2023-08-12T04:07:17;6.85;;;1.70;;
64342;SDS011;50675;53.530;-6.312;2023-08-12T04:20:57;8.30;;;1.77;;
64342;SDS011;50675;53.530;-6.312;2023-08-12T04:34:46;9.20;;;1.70;;
64342;SDS011;50675;53.530;-6.312;2023-08-12T04:55:44;6.50;;;1.92;;
64342;SDS011;50675;53.530;-6.312;2023-08-12T04:58:31;5.60;;;1.90;;
64342;SDS011;50675;53.530;-6.312;2023-08-12T05:00:56;8.70;;;1.50;;
64342;SDS011;50675;53.530;-6.312;2023-08-12T05:10:12;7.80;;;1.70;;
64342;SDS011;50675;53.530;-6.312;2023-08-12T05:12:38;6.60;;;1.80;;
64342;SDS011;50675;53.530;-6.312;2023-08-12T05:15:04;7.47;;;1.70;;
64342;SDS011;50675;53.530;-6.312;2023-08-12T05:17:40;7.03;;;1.73;;
64342;SDS011;50675;53.530;-6.312;2023-08-12T05:23:10;7.65;;;1.88;;
64342;SDS011;50675;53.530;-6.312;2023-08-12T05:25:51;6.90;;;1.52;;
64342;SDS011;50675;53.530;-6.312;2023-08-12T05:28:16;5.28;;;1.63;;
64342;SDS011;50675;53.530;-6.312;2023-08-12T06:39:59;6.00;;;1.60;;
64342;SDS011;50675;53.530;-6.312;2023-08-12T06:42:25;6.90;;;1.83;;
64342;SDS011;50675;53.530;-6.312;2023-08-12T06:44:54;7.43;;;1.50;;
64342;SDS011;50675;53.530;-6.312;2023-08-12T06:47:20;4.63;;;1.58;;
64342;SDS011;50675;53.530;-6.312;2023-08-12T06:49:46;4.10;;;1.50;;
64342;SDS011;50675;53.530;-6.312;2023-08-12T06:52:12;4.57;;;1.48;;
64342;SDS011;50675;53.530;-6.312;2023-08-12T06:54:38;9.07;;;1.85;;
64342;SDS011;50675;53.530;-6.312;2023-08-12T06:57:03;6.13;;;1.30;;
64342;SDS011;50675;53.530;-6.312;2023-08-12T06:59:29;6.88;;;1.65;;
64342;SDS011;50675;53.530;-6.312;2023-08-12T07:01:54;6.05;;;1.80;;
64342;SDS011;50675;53.530;-6.312;2023-08-12T07:04:20;6.57;;;3.08;;
64342;SDS011;50675;53.530;-6.312;2023-08-12T07:06:46;4.53;;;1.20;;
64342;SDS011;50675;53.530;-6.312;2023-08-12T07:09:12;3.95;;;1.17;;
64342;SDS011;50675;53.530;-6.312;2023-08-12T07:11:38;2.30;;;1.10;;
64342;SDS011;50675;53.530;-6.312;2023-08-12T07:14:04;5.30;;;1.90;;
64342;SDS011;50675;53.530;-6.312;2023-08-12T07:16:30;6.22;;;1.55;;
64342;SDS011;50675;53.530;-6.312;2023-08-12T07:18:55;5.47;;;1.30;;
64342;SDS011;50675;53.530;-6.312;2023-08-12T07:21:21;4.03;;;1.48;;
64342;SDS011;50675;53.530;-6.312;2023-08-12T07:23:47;6.53;;;2.03;;
64342;SDS011;50675;53.530;-6.312;2023-08-12T07:26:13;4.13;;;1.33;;
64342;SDS011;50675;53.530;-6.312;2023-08-12T07:28:38;7.93;;;1.58;;
64342;SDS011;50675;53.530;-6.312;2023-08-12T07:31:04;6.72;;;1.80;;
64342;SDS011;50675;53.530;-6.312;2023-08-12T07:33:30;10.38;;;1.75;;
64342;SDS011;50675;53.530;-6.312;2023-08-12T07:35:56;4.68;;;1.48;;
64342;SDS011;50675;53.530;-6.312;2023-08-12T07:38:21;6.10;;;1.38;;
64342;SDS011;50675;53.530;-6.312;2023-08-12T07:40:48;3.80;;;1.25;;
64342;SDS011;50675;53.530;-6.312;2023-08-12T07:43:14;6.07;;;1.40;;
64342;SDS011;50675;53.530;-6.312;2023-08-12T07:45:40;11.07;;;1.50;;
64342;SDS011;50675;53.530;-6.312;2023-08-12T07:48:06;6.43;;;1.33;;
64342;SDS011;50675;53.530;-6.312;2023-08-12T07:50:35;5.68;;;1.50;;
64342;SDS011;50675;53.530;-6.312;2023-08-12T07:53:00;2.60;;;1.17;;
64342;SDS011;50675;53.530;-6.312;2023-08-12T07:55:27;3.42;;;1.20;;
64342;SDS011;50675;53.530;-6.312;2023-08-12T07:57:53;5.50;;;1.67;;
64342;SDS011;50675;53.530;-6.312;2023-08-12T08:00:19;3.42;;;1.23;;
64342;SDS011;50675;53.530;-6.312;2023-08-12T08:02:44;5.15;;;1.42;;
64342;SDS011;50675;53.530;-6.312;2023-08-12T08:05:10;3.22;;;1.33;;
64342;SDS011;50675;53.530;-6.312;2023-08-12T08:07:36;4.90;;;1.23;;
64342;SDS011;50675;53.530;-6.312;2023-08-12T08:10:02;2.83;;;1.08;;
64342;SDS011;50675;53.530;-6.312;2023-08-12T08:12:28;2.60;;;1.02;;
64342;SDS011;50675;53.530;-6.312;2023-08-12T08:14:54;2.92;;;0.90;;
64342;SDS011;50675;53.530;-6.312;2023-08-12T08:17:19;2.83;;;0.77;;
64342;SDS011;50675;53.530;-6.312;2023-08-12T08:19:45;2.40;;;0.85;;
64342;SDS011;50675;53.530;-6.312;2023-08-12T08:22:11;4.95;;;1.15;;
64342;SDS011;50675;53.530;-6.312;2023-08-12T08:24:37;3.70;;;0.80;;
64342;SDS011;50675;53.530;-6.312;2023-08-12T08:27:03;4.97;;;1.13;;
64342;SDS011;50675;53.530;-6.312;2023-08-12T08:29:29;2.33;;;0.80;;
64342;SDS011;50675;53.530;-6.312;2023-08-12T08:31:56;4.15;;;0.90;;
64342;SDS011;50675;53.530;-6.312;2023-08-12T08:34:22;2.70;;;0.95;;
64342;SDS011;50675;53.530;-6.312;2023-08-12T08:36:47;2.15;;;0.90;;
64342;SDS011;50675;53.530;-6.312;2023-08-12T08:39:13;2.08;;;0.70;;
64342;SDS011;50675;53.530;-6.312;2023-08-12T08:41:41;2.60;;;0.90;;
64342;SDS011;50675;53.530;-6.312;2023-08-12T08:44:29;10.40;;;1.60;;
64342;SDS011;50675;53.530;-6.312;2023-08-12T08:46:56;2.90;;;0.65;;
64342;SDS011;50675;53.530;-6.312;2023-08-12T08:49:26;2.20;;;0.93;;
64342;SDS011;50675;53.530;-6.312;2023-08-12T08:51:54;2.50;;;0.65;;
64342;SDS011;50675;53.530;-6.312;2023-08-12T08:54:20;3.22;;;1.08;;
64342;SDS011;50675;53.530;-6.312;2023-08-12T08:56:45;5.90;;;1.00;;
64342;SDS011;50675;53.530;-6.312;2023-08-12T08:59:13;2.22;;;0.80;;
64342;SDS011;50675;53.530;-6.312;2023-08-12T09:01:39;2.92;;;0.75;;
64342;SDS011;50675;53.530;-6.312;2023-08-12T09:04:05;3.35;;;0.80;;
64342;SDS011;50675;53.530;-6.312;2023-08-12T09:06:33;1.35;;;0.70;;
64342;SDS011;50675;53.530;-6.312;2023-08-12T09:09:02;3.63;;;1.20;;
64342;SDS011;50675;53.530;-6.312;2023-08-12T09:11:36;2.22;;;0.77;;
64342;SDS011;50675;53.530;-6.312;2023-08-12T09:14:04;2.08;;;1.00;;
64342;SDS011;50675;53.530;-6.312;2023-08-12T09:20:48;3.35;;;1.05;;
64342;SDS011;50675;53.530;-6.312;2023-08-12T09:23:14;2.40;;;0.75;;
64342;SDS011;50675;53.530;-6.312;2023-08-12T09:25:43;3.80;;;0.90;;
64342;SDS011;50675;53.530;-6.312;2023-08-12T09:28:09;2.70;;;1.20;;
64342;SDS011;50675;53.530;-6.312;2023-08-12T09:30:41;2.88;;;1.20;;
64342;SDS011;50675;53.530;-6.312;2023-08-12T09:33:08;3.67;;;1.23;;
64342;SDS011;50675;53.530;-6.312;2023-08-12T09:35:42;2.47;;;0.80;;
64342;SDS011;50675;53.530;-6.312;2023-08-12T09:38:13;3.53;;;1.00;;
64342;SDS011;50675;53.530;-6.312;2023-08-12T09:40:39;2.85;;;1.00;;
64342;SDS011;50675;53.530;-6.312;2023-08-12T09:43:05;3.45;;;1.00;;
64342;SDS011;50675;53.530;-6.312;2023-08-12T09:45:34;2.50;;;0.63;;
64342;SDS011;50675;53.530;-6.312;2023-08-12T09:48:00;3.92;;;0.80;;
64342;SDS011;50675;53.530;-6.312;2023-08-12T09:50:26;3.65;;;1.08;;
64342;SDS011;50675;53.530;-6.312;2023-08-12T09:52:53;2.90;;;0.65;;
64342;SDS011;50675;53.530;-6.312;2023-08-12T09:55:21;2.45;;;0.85;;
64342;SDS011;50675;53.530;-6.312;2023-08-12T09:57:51;5.00;;;0.98;;
64342;SDS011;50675;53.530;-6.312;2023-08-12T10:00:18;2.55;;;0.70;;
64342;SDS011;50675;53.530;-6.312;2023-08-12T10:02:46;2.88;;;0.60;;
64342;SDS011;50675;53.530;-6.312;2023-08-12T10:05:19;2.28;;;0.60;;
64342;SDS011;50675;53.530;-6.312;2023-08-12T10:07:48;3.45;;;0.85;;
64342;SDS011;50675;53.530;-6.312;2023-08-12T10:10:14;3.33;;;0.88;;
64342;SDS011;50675;53.530;-6.312;2023-08-12T10:12:40;3.05;;;0.88;;
64342;SDS011;50675;53.530;-6.312;2023-08-12T10:15:06;2.60;;;1.00;;
64342;SDS011;50675;53.530;-6.312;2023-08-12T10:17:34;3.60;;;0.82;;
64342;SDS011;50675;53.530;-6.312;2023-08-12T10:20:03;1.02;;;0.70;;
64342;SDS011;50675;53.530;-6.312;2023-08-12T10:22:30;3.67;;;0.80;;
64342;SDS011;50675;53.530;-6.312;2023-08-12T10:25:01;3.25;;;1.00;;
64342;SDS011;50675;53.530;-6.312;2023-08-12T10:27:28;3.28;;;0.90;;
64342;SDS011;50675;53.530;-6.312;2023-08-12T10:29:57;2.13;;;0.90;;
64342;SDS011;50675;53.530;-6.312;2023-08-12T10:32:27;3.67;;;0.90;;
64342;SDS011;50675;53.530;-6.312;2023-08-12T10:34:57;4.97;;;1.02;;
64342;SDS011;50675;53.530;-6.312;2023-08-12T10:37:24;3.45;;;0.98;;
64342;SDS011;50675;53.530;-6.312;2023-08-12T10:39:54;4.88;;;1.40;;
64342;SDS011;50675;53.530;-6.312;2023-08-12T10:45:19;5.03;;;1.02;;
64342;SDS011;50675;53.530;-6.312;2023-08-12T10:54:22;5.10;;;1.40;;
64342;SDS011;50675;53.530;-6.312;2023-08-12T11:02:20;4.63;;;1.20;;
64342;SDS011;50675;53.530;-6.312;2023-08-12T11:04:51;6.05;;;0.80;;
64342;SDS011;50675;53.530;-6.312;2023-08-12T11:10:36;3.50;;;1.13;;
64342;SDS011;50675;53.530;-6.312;2023-08-12T11:13:08;3.80;;;1.13;;
64342;SDS011;50675;53.530;-6.312;2023-08-12T11:15:37;5.60;;;1.27;;
64342;SDS011;50675;53.530;-6.312;2023-08-12T11:18:13;2.78;;;0.85;;
64342;SDS011;50675;53.530;-6.312;2023-08-12T11:20:51;3.15;;;0.90;;
64342;SDS011;50675;53.530;-6.312;2023-08-12T11:23:22;3.03;;;1.13;;
64342;SDS011;50675;53.530;-6.312;2023-08-12T11:26:14;3.83;;;1.15;;
64342;SDS011;50675;53.530;-6.312;2023-08-12T11:32:01;2.70;;;1.05;;
64342;SDS011;50675;53.530;-6.312;2023-08-12T11:34:31;4.03;;;1.10;;
64342;SDS011;50675;53.530;-6.312;2023-08-12T11:37:00;2.50;;;0.95;;
64342;SDS011;50675;53.530;-6.312;2023-08-12T11:39:36;6.00;;;1.17;;
64342;SDS011;50675;53.530;-6.312;2023-08-12T11:42:02;2.88;;;1.05;;
64342;SDS011;50675;53.530;-6.312;2023-08-12T11:44:28;3.35;;;0.80;;
64342;SDS011;50675;53.530;-6.312;2023-08-12T11:46:54;3.33;;;1.13;;
64342;SDS011;50675;53.530;-6.312;2023-08-12T11:49:20;3.03;;;0.93;;
64342;SDS011;50675;53.530;-6.312;2023-08-12T11:51:49;3.35;;;1.10;;
64342;SDS011;50675;53.530;-6.312;2023-08-12T11:54:15;4.95;;;1.77;;
64342;SDS011;50675;53.530;-6.312;2023-08-12T11:56:42;1.23;;;0.73;;
64342;SDS011;50675;53.530;-6.312;2023-08-12T11:59:08;3.65;;;1.10;;
64342;SDS011;50675;53.530;-6.312;2023-08-12T12:01:34;2.13;;;0.77;;
64342;SDS011;50675;53.530;-6.312;2023-08-12T12:04:01;4.13;;;0.90;;
64342;SDS011;50675;53.530;-6.312;2023-08-12T12:06:36;5.35;;;1.10;;
64342;SDS011;50675;53.530;-6.312;2023-08-12T12:09:06;4.10;;;1.40;;
64342;SDS011;50675;53.530;-6.312;2023-08-12T12:11:38;4.85;;;1.40;;
64342;SDS011;50675;53.530;-6.312;2023-08-12T12:14:05;3.15;;;1.15;;
64342;SDS011;50675;53.530;-6.312;2023-08-12T12:16:43;4.22;;;1.08;;
64342;SDS011;50675;53.530;-6.312;2023-08-12T14:06:33;2.90;;;0.93;;
64342;SDS011;50675;53.530;-6.312;2023-08-12T14:09:00;4.35;;;1.00;;
64342;SDS011;50675;53.530;-6.312;2023-08-12T14:11:26;2.63;;;1.08;;
64342;SDS011;50675;53.530;-6.312;2023-08-12T14:13:51;4.45;;;1.10;;
64342;SDS011;50675;53.530;-6.312;2023-08-12T14:16:25;4.40;;;1.60;;
64342;SDS011;50675;53.530;-6.312;2023-08-12T14:19:02;3.63;;;1.35;;
64342;SDS011;50675;53.530;-6.312;2023-08-12T14:21:35;2.63;;;0.98;;
64342;SDS011;50675;53.530;-6.312;2023-08-12T14:24:01;2.53;;;1.20;;
64342;SDS011;50675;53.530;-6.312;2023-08-12T14:26:27;3.08;;;1.20;;
64342;SDS011;50675;53.530;-6.312;2023-08-12T14:28:53;2.45;;;1.30;;
64342;SDS011;50675;53.530;-6.312;2023-08-12T14:31:19;2.78;;;1.10;;
64342;SDS011;50675;53.530;-6.312;2023-08-12T14:33:47;2.28;;;1.25;;
64342;SDS011;50675;53.530;-6.312;2023-08-12T14:36:13;3.42;;;1.38;;
64342;SDS011;50675;53.530;-6.312;2023-08-12T14:38:39;3.20;;;1.30;;
64342;SDS011;50675;53.530;-6.312;2023-08-12T14:41:05;4.55;;;1.27;;
64342;SDS011;50675;53.530;-6.312;2023-08-12T14:43:33;3.95;;;1.60;;
64342;SDS011;50675;53.530;-6.312;2023-08-12T14:45:59;4.43;;;1.50;;
64342;SDS011;50675;53.530;-6.312;2023-08-12T14:48:25;5.15;;;1.75;;
64342;SDS011;50675;53.530;-6.312;2023-08-12T14:50:51;3.15;;;2.05;;
64342;SDS011;50675;53.530;-6.312;2023-08-12T14:53:17;2.65;;;1.33;;
64342;SDS011;50675;53.530;-6.312;2023-08-12T14:55:43;5.20;;;1.52;;
64342;SDS011;50675;53.530;-6.312;2023-08-12T14:58:08;4.53;;;1.42;;
64342;SDS011;50675;53.530;-6.312;2023-08-12T15:00:40;5.50;;;1.70;;
64342;SDS011;50675;53.530;-6.312;2023-08-12T15:03:05;2.83;;;1.40;;
64342;SDS011;50675;53.530;-6.312;2023-08-12T15:05:31;2.60;;;1.52;;
64342;SDS011;50675;53.530;-6.312;2023-08-12T15:07:59;3.00;;;1.88;;
64342;SDS011;50675;53.530;-6.312;2023-08-12T15:10:25;4.57;;;1.80;;
64342;SDS011;50675;53.530;-6.312;2023-08-12T15:12:54;3.50;;;1.42;;
64342;SDS011;50675;53.530;-6.312;2023-08-12T15:15:21;4.30;;;1.67;;
64342;SDS011;50675;53.530;-6.312;2023-08-12T15:17:47;2.90;;;1.52;;
64342;SDS011;50675;53.530;-6.312;2023-08-12T15:20:12;4.35;;;1.95;;
64342;SDS011;50675;53.530;-6.312;2023-08-12T15:22:38;4.45;;;1.70;;
64342;SDS011;50675;53.530;-6.312;2023-08-12T15:25:05;7.57;;;1.83;;
64342;SDS011;50675;53.530;-6.312;2023-08-12T15:27:31;6.07;;;1.83;;
64342;SDS011;50675;53.530;-6.312;2023-08-12T15:29:57;5.18;;;1.75;;
64342;SDS011;50675;53.530;-6.312;2023-08-12T15:32:24;3.72;;;1.67;;
64342;SDS011;50675;53.530;-6.312;2023-08-12T15:34:57;3.97;;;1.60;;
64342;SDS011;50675;53.530;-6.312;2023-08-12T15:37:23;4.80;;;1.92;;
64342;SDS011;50675;53.530;-6.312;2023-08-12T15:39:49;2.53;;;1.90;;
64342;SDS011;50675;53.530;-6.312;2023-08-12T15:42:15;2.33;;;0.80;;
64342;SDS011;50675;53.530;-6.312;2023-08-12T15:44:40;1.95;;;0.55;;
64342;SDS011;50675;53.530;-6.312;2023-08-12T15:47:06;1.60;;;0.93;;
64342;SDS011;50675;53.530;-6.312;2023-08-12T15:49:32;1.80;;;1.20;;
64342;SDS011;50675;53.530;-6.312;2023-08-12T15:51:59;3.45;;;1.42;;
64342;SDS011;50675;53.530;-6.312;2023-08-12T15:54:28;3.05;;;1.33;;
64342;SDS011;50675;53.530;-6.312;2023-08-12T15:56:54;3.05;;;1.77;;
64342;SDS011;50675;53.530;-6.312;2023-08-12T15:59:22;4.07;;;1.48;;
64342;SDS011;50675;53.530;-6.312;2023-08-12T16:01:48;3.80;;;1.73;;
64342;SDS011;50675;53.530;-6.312;2023-08-12T16:04:14;3.40;;;1.50;;
64342;SDS011;50675;53.530;-6.312;2023-08-12T16:06:40;5.53;;;1.75;;
64342;SDS011;50675;53.530;-6.312;2023-08-12T16:09:06;4.75;;;1.65;;
64342;SDS011;50675;53.530;-6.312;2023-08-12T16:11:32;4.70;;;1.65;;
64342;SDS011;50675;53.530;-6.312;2023-08-12T16:13:58;3.35;;;1.45;;
64342;SDS011;50675;53.530;-6.312;2023-08-12T16:16:24;3.28;;;1.52;;
64342;SDS011;50675;53.530;-6.312;2023-08-12T16:18:50;3.58;;;1.27;;
64342;SDS011;50675;53.530;-6.312;2023-08-12T16:21:16;5.88;;;1.60;;
64342;SDS011;50675;53.530;-6.312;2023-08-12T16:23:41;6.88;;;1.65;;
64342;SDS011;50675;53.530;-6.312;2023-08-12T16:26:07;3.33;;;1.50;;
64342;SDS011;50675;53.530;-6.312;2023-08-12T16:28:33;6.05;;;1.75;;
64342;SDS011;50675;53.530;-6.312;2023-08-12T16:30:59;5.03;;;1.88;;
64342;SDS011;50675;53.530;-6.312;2023-08-12T16:33:25;5.38;;;1.63;;
64342;SDS011;50675;53.530;-6.312;2023-08-12T16:35:51;4.65;;;2.10;;
64342;SDS011;50675;53.530;-6.312;2023-08-12T16:38:17;4.38;;;1.65;;
64342;SDS011;50675;53.530;-6.312;2023-08-12T16:40:44;4.45;;;1.60;;
64342;SDS011;50675;53.530;-6.312;2023-08-12T16:43:10;4.75;;;1.50;;
64342;SDS011;50675;53.530;-6.312;2023-08-12T16:45:35;3.00;;;1.50;;
64342;SDS011;50675;53.530;-6.312;2023-08-12T16:48:01;3.33;;;1.55;;
64342;SDS011;50675;53.530;-6.312;2023-08-12T16:50:27;5.40;;;1.52;;
64342;SDS011;50675;53.530;-6.312;2023-08-12T16:52:53;3.22;;;1.98;;
64342;SDS011;50675;53.530;-6.312;2023-08-12T16:55:18;4.68;;;1.67;;
64342;SDS011;50675;53.530;-6.312;2023-08-12T16:57:44;4.63;;;1.45;;
64342;SDS011;50675;53.530;-6.312;2023-08-12T17:00:10;6.43;;;1.77;;
64342;SDS011;50675;53.530;-6.312;2023-08-12T17:02:36;3.85;;;1.27;;
64342;SDS011;50675;53.530;-6.312;2023-08-12T17:05:02;5.28;;;1.83;;
64342;SDS011;50675;53.530;-6.312;2023-08-12T17:07:28;5.10;;;1.50;;
64342;SDS011;50675;53.530;-6.312;2023-08-12T17:09:54;5.50;;;1.88;;
64342;SDS011;50675;53.530;-6.312;2023-08-12T17:12:20;5.15;;;1.80;;
64342;SDS011;50675;53.530;-6.312;2023-08-12T17:14:46;3.25;;;1.48;;
64342;SDS011;50675;53.530;-6.312;2023-08-12T17:17:12;4.03;;;1.50;;
64342;SDS011;50675;53.530;-6.312;2023-08-12T17:19:38;2.67;;;1.40;;
64342;SDS011;50675;53.530;-6.312;2023-08-12T17:22:04;10.65;;;2.53;;
64342;SDS011;50675;53.530;-6.312;2023-08-12T17:24:30;6.05;;;1.90;;
64342;SDS011;50675;53.530;-6.312;2023-08-12T17:26:56;4.45;;;1.55;;
64342;SDS011;50675;53.530;-6.312;2023-08-12T17:29:22;2.17;;;1.45;;
64342;SDS011;50675;53.530;-6.312;2023-08-12T17:31:48;4.03;;;1.70;;
64342;SDS011;50675;53.530;-6.312;2023-08-12T17:34:14;3.60;;;1.90;;
64342;SDS011;50675;53.530;-6.312;2023-08-12T17:36:39;3.17;;;1.10;;
64342;SDS011;50675;53.530;-6.312;2023-08-12T17:39:05;3.67;;;1.40;;
64342;SDS011;50675;53.530;-6.312;2023-08-12T17:41:30;3.20;;;1.55;;
64342;SDS011;50675;53.530;-6.312;2023-08-12T17:43:56;3.45;;;1.63;;
64342;SDS011;50675;53.530;-6.312;2023-08-12T17:46:24;3.85;;;1.50;;
64342;SDS011;50675;53.530;-6.312;2023-08-12T17:48:49;1.67;;;1.10;;
64342;SDS011;50675;53.530;-6.312;2023-08-12T17:51:16;5.30;;;1.27;;
64342;SDS011;50675;53.530;-6.312;2023-08-12T17:53:47;3.90;;;1.33;;
64342;SDS011;50675;53.530;-6.312;2023-08-12T17:56:13;5.00;;;1.45;;
64342;SDS011;50675;53.530;-6.312;2023-08-12T17:58:45;2.28;;;1.30;;
64342;SDS011;50675;53.530;-6.312;2023-08-12T18:01:11;7.30;;;1.77;;
64342;SDS011;50675;53.530;-6.312;2023-08-12T18:03:37;3.85;;;1.40;;
64342;SDS011;50675;53.530;-6.312;2023-08-12T18:06:03;4.38;;;1.60;;
64342;SDS011;50675;53.530;-6.312;2023-08-12T18:08:30;3.75;;;1.83;;
64342;SDS011;50675;53.530;-6.312;2023-08-12T18:10:56;4.40;;;1.60;;
64342;SDS011;50675;53.530;-6.312;2023-08-12T18:13:22;2.03;;;1.17;;
64342;SDS011;50675;53.530;-6.312;2023-08-12T18:15:48;4.68;;;1.60;;
64342;SDS011;50675;53.530;-6.312;2023-08-12T18:18:14;8.50;;;1.73;;
64342;SDS011;50675;53.530;-6.312;2023-08-12T18:20:42;4.03;;;1.30;;
64342;SDS011;50675;53.530;-6.312;2023-08-12T18:23:08;4.60;;;1.80;;
64342;SDS011;50675;53.530;-6.312;2023-08-12T18:25:34;5.07;;;1.83;;
64342;SDS011;50675;53.530;-6.312;2023-08-12T18:28:00;6.65;;;1.90;;
64342;SDS011;50675;53.530;-6.312;2023-08-12T18:30:26;4.53;;;1.52;;
64342;SDS011;50675;53.530;-6.312;2023-08-12T18:32:52;5.35;;;2.05;;
64342;SDS011;50675;53.530;-6.312;2023-08-12T18:35:20;4.28;;;1.50;;
64342;SDS011;50675;53.530;-6.312;2023-08-12T18:37:46;6.20;;;1.92;;
64342;SDS011;50675;53.530;-6.312;2023-08-12T18:40:12;5.10;;;1.55;;
64342;SDS011;50675;53.530;-6.312;2023-08-12T18:42:38;6.70;;;2.25;;
64342;SDS011;50675;53.530;-6.312;2023-08-12T18:45:03;6.78;;;1.75;;
64342;SDS011;50675;53.530;-6.312;2023-08-12T18:47:30;7.22;;;2.80;;
64342;SDS011;50675;53.530;-6.312;2023-08-12T18:49:58;8.80;;;2.17;;
64342;SDS011;50675;53.530;-6.312;2023-08-12T18:52:23;5.05;;;1.65;;
64342;SDS011;50675;53.530;-6.312;2023-08-12T18:54:49;6.20;;;2.00;;
64342;SDS011;50675;53.530;-6.312;2023-08-12T18:57:15;9.10;;;2.10;;
64342;SDS011;50675;53.530;-6.312;2023-08-12T18:59:41;8.63;;;2.00;;
64342;SDS011;50675;53.530;-6.312;2023-08-12T19:02:09;5.93;;;1.90;;
64342;SDS011;50675;53.530;-6.312;2023-08-12T19:04:35;6.75;;;2.13;;
64342;SDS011;50675;53.530;-6.312;2023-08-12T19:07:01;9.20;;;2.35;;
64342;SDS011;50675;53.530;-6.312;2023-08-12T19:09:26;7.85;;;2.15;;
64342;SDS011;50675;53.530;-6.312;2023-08-12T19:11:52;6.30;;;2.42;;
64342;SDS011;50675;53.530;-6.312;2023-08-12T19:14:18;7.82;;;1.95;;
64342;SDS011;50675;53.530;-6.312;2023-08-12T19:20:26;7.75;;;2.28;;
64342;SDS011;50675;53.530;-6.312;2023-08-12T19:22:52;10.02;;;3.05;;
64342;SDS011;50675;53.530;-6.312;2023-08-12T19:25:17;10.68;;;2.60;;
64342;SDS011;50675;53.530;-6.312;2023-08-12T19:27:43;8.43;;;2.38;;
64342;SDS011;50675;53.530;-6.312;2023-08-12T19:30:09;10.07;;;2.65;;
64342;SDS011;50675;53.530;-6.312;2023-08-12T19:35:30;16.92;;;2.72;;
64342;SDS011;50675;53.530;-6.312;2023-08-12T19:37:56;13.38;;;3.33;;
64342;SDS011;50675;53.530;-6.312;2023-08-12T19:40:25;11.98;;;3.05;;
64342;SDS011;50675;53.530;-6.312;2023-08-12T19:42:51;6.30;;;2.08;;
64342;SDS011;50675;53.530;-6.312;2023-08-12T19:45:19;13.90;;;3.03;;
64342;SDS011;50675;53.530;-6.312;2023-08-12T19:47:46;6.82;;;2.22;;
64342;SDS011;50675;53.530;-6.312;2023-08-12T19:50:12;5.88;;;2.03;;
64342;SDS011;50675;53.530;-6.312;2023-08-12T19:52:38;10.60;;;2.50;;
64342;SDS011;50675;53.530;-6.312;2023-08-12T19:55:04;11.98;;;2.70;;
64342;SDS011;50675;53.530;-6.312;2023-08-12T19:57:31;10.45;;;2.40;;
64342;SDS011;50675;53.530;-6.312;2023-08-12T19:59:58;9.27;;;2.53;;
64342;SDS011;50675;53.530;-6.312;2023-08-12T20:02:24;10.35;;;3.08;;
64342;SDS011;50675;53.530;-6.312;2023-08-12T20:04:50;8.32;;;2.35;;
64342;SDS011;50675;53.530;-6.312;2023-08-12T20:07:16;5.88;;;2.50;;
64342;SDS011;50675;53.530;-6.312;2023-08-12T22:46:42;6.28;;;1.70;;
64342;SDS011;50675;53.530;-6.312;2023-08-12T22:52:29;6.25;;;1.65;;
64342;SDS011;50675;53.530;-6.312;2023-08-12T22:55:03;5.75;;;1.65;;
64342;SDS011;50675;53.530;-6.312;2023-08-12T22:57:38;6.88;;;2.22;;
64342;SDS011;50675;53.530;-6.312;2023-08-12T23:03:08;4.38;;;1.70;;
64342;SDS011;50675;53.530;-6.312;2023-08-12T23:08:34;7.25;;;1.73;;
64342;SDS011;50675;53.530;-6.312;2023-08-12T23:11:00;6.78;;;1.88;;
64342;SDS011;50675;53.530;-6.312;2023-08-12T23:16:13;7.07;;;1.88;;
64342;SDS011;50675;53.530;-6.312;2023-08-12T23:19:51;3.40;;;1.70;;
64342;SDS011;50675;53.530;-6.312;2023-08-12T23:25:35;7.30;;;1.80;;
64342;SDS011;50675;53.530;-6.312;2023-08-12T23:28:10;6.47;;;1.80;;
64342;SDS011;50675;53.530;-6.312;2023-08-12T23:36:26;2.90;;;1.60;;
64342;SDS011;50675;53.530;-6.312;2023-08-12T23:39:07;5.53;;;1.73;;
64342;SDS011;50675;53.530;-6.312;2023-08-12T23:41:47;3.78;;;1.60;;
64342;SDS011;50675;53.530;-6.312;2023-08-12T23:44:12;5.65;;;1.92;;
64342;SDS011;50675;53.530;-6.312;2023-08-12T23:49:32;5.32;;;1.85;;
64342;SDS011;50675;53.530;-6.312;2023-08-12T23:52:04;6.22;;;2.00;;
64342;SDS011;50675;53.530;-6.312;2023-08-12T23:54:33;5.65;;;1.90;;
64342;SDS011;50675;53.530;-6.312;2023-08-12T23:57:11;7.80;;;2.00;;
64342;SDS011;50675;53.530;-6.312;2023-08-12T23:59:37;6.20;;;2.05;;
